| time (UTC) | temp F | wind direction | speed MPH | gust MPH | rain 1hr in | rain 24hr in | rain mn in | humidity % | barometer mb |
| 20260902091040 | 75 | 159 | 4.0 | 8.0 | 0.00 | 0.00 | 0.00 | 81 | 1012.3 |
| 20260902090540 | 75 | 194 | 4.0 | 8.0 | 0.00 | 0.00 | 0.00 | 81 | 1012.3 |
| 20260902090043 | 75 | 193 | 4.0 | 8.0 | 0.00 | 0.00 | 0.00 | 80 | 1012.2 |
| 20260902085539 | 75 | 196 | 4.0 | 8.0 | 0.00 | 0.00 | 0.00 | 80 | 1012.3 |
| 20260902085038 | 75 | 200 | 4.0 | 8.0 | 0.00 | 0.00 | 0.00 | 79 | 1012.3 |
| 20260902084548 | 75 | 186 | 4.0 | 7.0 | 0.00 | 0.00 | 0.00 | 79 | 1012.4 |
| 20260902084038 | 75 | 219 | 4.0 | 11.0 | 0.00 | 0.00 | 0.00 | 78 | 1012.4 |
| 20260902083540 | 75 | 194 | 4.0 | 11.0 | 0.00 | 0.00 | 0.00 | 78 | 1012.4 |
| 20260902083046 | 75 | 190 | 3.0 | 7.0 | 0.00 | 0.00 | 0.00 | 77 | 1012.4 |
| 20260902082536 | 75 | 195 | 3.0 | 7.0 | 0.00 | 0.00 | 0.00 | 77 | 1012.4 |
| 20260902082036 | 75 | 190 | 3.0 | 9.0 | 0.00 | 0.00 | 0.00 | 77 | 1012.5 |
| 20260902081535 | 75 | 214 | 4.0 | 9.0 | 0.00 | 0.00 | 0.00 | 77 | 1012.5 |
| 20260902081035 | 75 | 175 | 4.0 | 7.0 | 0.00 | 0.00 | 0.00 | 77 | 1012.4 |
| 20260902080534 | 76 | 177 | 2.0 | 5.0 | 0.00 | 0.00 | 0.00 | 76 | 1012.5 |
| 20260902080034 | 76 | 190 | 3.0 | 5.0 | 0.00 | 0.00 | 0.00 | 76 | 1012.5 |
| 20260902075533 | 76 | 203 | 3.0 | 6.0 | 0.00 | 0.00 | 0.00 | 76 | 1012.5 |
| 20260902075034 | 76 | 202 | 2.0 | 6.0 | 0.00 | 0.00 | 0.00 | 75 | 1012.5 |
| 20260902074533 | 76 | 187 | 2.0 | 6.0 | 0.00 | 0.00 | 0.00 | 75 | 1012.5 |
| 20260902074031 | 76 | 202 | 4.0 | 7.0 | 0.00 | 0.00 | 0.00 | 75 | 1012.5 |
| 20260902073531 | 77 | 176 | 4.0 | 7.0 | 0.00 | 0.00 | 0.00 | 75 | 1012.5 |
| 20260902073029 | 77 | 159 | 4.0 | 6.0 | 0.00 | 0.00 | 0.00 | 75 | 1012.5 |
| 20260902072528 | 77 | 173 | 2.0 | 8.0 | 0.00 | 0.00 | 0.00 | 75 | 1012.5 |
| 20260902072028 | 77 | 176 | 4.0 | 8.0 | 0.00 | 0.00 | 0.00 | 75 | 1012.6 |
| 20260902071535 | 77 | 155 | 4.0 | 7.0 | 0.00 | 0.00 | 0.00 | 74 | 1012.6 |
| 20260902071027 | 77 | 138 | 3.0 | 8.0 | 0.00 | 0.00 | 0.00 | 74 | 1012.6 |
| 20260902070527 | 78 | 170 | 5.0 | 8.0 | 0.00 | 0.00 | 0.00 | 74 | 1012.6 |
| 20260902070025 | 78 | 161 | 4.0 | 11.0 | 0.00 | 0.00 | 0.00 | 74 | 1012.6 |
| 20260902065524 | 78 | 163 | 5.0 | 11.0 | 0.00 | 0.00 | 0.00 | 74 | 1012.5 |
| 20260902065123 | 78 | 159 | 5.0 | 11.0 | 0.00 | 0.00 | 0.00 | 73 | 1012.5 |
| 20260902064523 | 78 | 161 | 4.0 | 9.0 | 0.00 | 0.00 | 0.00 | 73 | 1012.5 |
| 20260902064024 | 78 | 180 | 6.0 | 10.0 | 0.00 | 0.00 | 0.00 | 73 | 1012.5 |
| 20260902063521 | 78 | 167 | 4.0 | 10.0 | 0.00 | 0.00 | 0.00 | 72 | 1012.5 |
| 20260902063028 | 78 | 183 | 4.0 | 10.0 | 0.00 | 0.00 | 0.00 | 72 | 1012.4 |
| 20260902062520 | 79 | 160 | 4.0 | 9.0 | 0.00 | 0.00 | 0.00 | 71 | 1012.4 |
| 20260902062023 | 79 | 162 | 3.0 | 7.0 | 0.00 | 0.00 | 0.00 | 71 | 1012.4 |
| 20260902061537 | 79 | 183 | 3.0 | 9.0 | 0.00 | 0.00 | 0.00 | 70 | 1012.4 |
| 20260902061018 | 79 | 163 | 5.0 | 12.0 | 0.00 | 0.00 | 0.00 | 70 | 1012.3 |
| 20260902060518 | 79 | 187 | 4.0 | 13.0 | 0.00 | 0.00 | 0.00 | 69 | 1012.4 |
| 20260902060021 | 79 | 166 | 7.0 | 16.0 | 0.00 | 0.00 | 0.00 | 69 | 1012.3 |
| 20260902055516 | 80 | 139 | 10.0 | 16.0 | 0.00 | 0.00 | 0.00 | 68 | 1012.4 |
| 20260902055015 | 80 | 123 | 7.0 | 13.0 | 0.00 | 0.00 | 0.00 | 67 | 1012.3 |
| 20260902054512 | 80 | 128 | 8.0 | 14.0 | 0.00 | 0.00 | 0.00 | 66 | 1012.3 |
| 20260902054012 | 81 | 125 | 7.0 | 14.0 | 0.00 | 0.00 | 0.00 | 65 | 1012.3 |
| 20260902053511 | 81 | 122 | 7.0 | 15.0 | 0.00 | 0.00 | 0.00 | 65 | 1012.3 |
| 20260902053016 | 81 | 132 | 10.0 | 18.0 | 0.00 | 0.00 | 0.00 | 64 | 1012.3 |
| 20260902052512 | 81 | 134 | 11.0 | 18.0 | 0.00 | 0.00 | 0.00 | 64 | 1012.3 |
| 20260902052008 | 82 | 159 | 10.0 | 14.0 | 0.00 | 0.00 | 0.00 | 62 | 1012.3 |
| 20260902051507 | 82 | 149 | 7.0 | 15.0 | 0.00 | 0.00 | 0.00 | 61 | 1012.4 |
| 20260902051008 | 82 | 139 | 10.0 | 16.0 | 0.00 | 0.00 | 0.00 | 60 | 1012.4 |
| 20260902050506 | 82 | 134 | 10.0 | 16.0 | 0.00 | 0.00 | 0.00 | 59 | 1012.4 |
| 20260902050008 | 82 | 139 | 5.0 | 7.0 | 0.00 | 0.00 | 0.00 | 57 | 1012.2 |
| 20260902045503 | 82 | 144 | 3.0 | 6.0 | 0.00 | 0.00 | 0.00 | 57 | 1012.0 |
| 20260902045005 | 82 | 160 | 3.0 | 7.0 | 0.00 | 0.00 | 0.00 | 57 | 1012.0 |
| 20260902044504 | 82 | 152 | 3.0 | 7.0 | 0.00 | 0.00 | 0.00 | 57 | 1012.1 |
| 20260902044003 | 82 | 152 | 4.0 | 5.0 | 0.00 | 0.00 | 0.00 | 57 | 1012.0 |
| 20260902043507 | 82 | 165 | 3.0 | 7.0 | 0.00 | 0.00 | 0.00 | 57 | 1012.0 |
| 20260902043004 | 82 | 142 | 3.0 | 7.0 | 0.00 | 0.00 | 0.00 | 57 | 1012.0 |
| 20260902042503 | 82 | 126 | 3.0 | 7.0 | 0.00 | 0.00 | 0.00 | 57 | 1012.1 |
| 20260902042004 | 82 | 152 | 4.0 | 7.0 | 0.00 | 0.00 | 0.00 | 57 | 1012.1 |
| 20260902041505 | 82 | 144 | 4.0 | 8.0 | 0.00 | 0.00 | 0.00 | 57 | 1012.1 |
| 20260902041002 | 82 | 163 | 4.0 | 8.0 | 0.00 | 0.00 | 0.00 | 57 | 1012.1 |
| 20260902040502 | 82 | 132 | 3.0 | 7.0 | 0.00 | 0.00 | 0.00 | 57 | 1012.0 |
| 20260902040001 | 82 | 143 | 3.0 | 7.0 | 0.00 | 0.00 | 0.00 | 57 | 1012.0 |
| 20260902035501 | 82 | 157 | 3.0 | 7.0 | 0.00 | 0.00 | 0.00 | 57 | 1012.0 |
| 20260902035001 | 82 | 140 | 2.0 | 6.0 | 0.00 | 0.00 | 0.00 | 57 | 1012.0 |
| 20260902034501 | 82 | 143 | 3.0 | 5.0 | 0.00 | 0.00 | 0.00 | 57 | 1012.0 |
| 20260902034001 | 82 | 161 | 2.0 | 5.0 | 0.00 | 0.00 | 0.00 | 56 | 1011.9 |
| 20260902033500 | 83 | 162 | 3.0 | 6.0 | 0.00 | 0.00 | 0.00 | 56 | 1011.9 |
| 20260902033002 | 83 | 148 | 3.0 | 8.0 | 0.00 | 0.00 | 0.00 | 56 | 1011.9 |
| 20260902032600 | 83 | 169 | 5.0 | 8.0 | 0.00 | 0.00 | 0.00 | 56 | 1011.8 |
| 20260902032100 | 83 | 117 | 3.0 | 7.0 | 0.00 | 0.00 | 0.00 | 56 | 1011.8 |
| 20260902031602 | 83 | 138 | 3.0 | 6.0 | 0.00 | 0.00 | 0.00 | 56 | 1011.8 |
| 20260902031100 | 83 | 159 | 3.0 | 6.0 | 0.00 | 0.00 | 0.00 | 56 | 1011.7 |
| 20260902030600 | 83 | 139 | 3.0 | 7.0 | 0.00 | 0.00 | 0.00 | 55 | 1011.7 |
| 20260902030100 | 83 | 152 | 3.0 | 7.0 | 0.00 | 0.00 | 0.00 | 55 | 1011.6 |
| 20260902025559 | 83 | 145 | 3.0 | 7.0 | 0.00 | 0.00 | 0.00 | 55 | 1011.6 |
| 20260902025102 | 84 | 133 | 4.0 | 7.0 | 0.00 | 0.00 | 0.00 | 54 | 1011.5 |
| 20260902024658 | 84 | 134 | 4.0 | 8.0 | 0.00 | 0.00 | 0.00 | 54 | 1011.4 |
| 20260902024102 | 84 | 124 | 4.0 | 8.0 | 0.00 | 0.00 | 0.00 | 54 | 1011.4 |
| 20260902023559 | 84 | 124 | 5.0 | 9.0 | 0.00 | 0.00 | 0.00 | 54 | 1011.2 |
| 20260902023105 | 84 | 132 | 5.0 | 9.0 | 0.00 | 0.00 | 0.00 | 54 | 1011.1 |
| 20260902022558 | 84 | 152 | 4.0 | 8.0 | 0.00 | 0.00 | 0.00 | 54 | 1011.0 |
| 20260902022057 | 84 | 164 | 3.0 | 8.0 | 0.00 | 0.00 | 0.00 | 53 | 1011.0 |
| 20260902021558 | 84 | 128 | 4.0 | 8.0 | 0.00 | 0.00 | 0.00 | 53 | 1010.8 |
| 20260902021058 | 84 | 127 | 3.0 | 8.0 | 0.00 | 0.00 | 0.00 | 53 | 1010.7 |
| 20260902020557 | 84 | 136 | 4.0 | 8.0 | 0.00 | 0.00 | 0.00 | 52 | 1010.7 |
| 20260902020107 | 85 | 142 | 4.0 | 8.0 | 0.00 | 0.00 | 0.00 | 52 | 1010.7 |
| 20260902015556 | 85 | 130 | 3.0 | 7.0 | 0.00 | 0.00 | 0.00 | 52 | 1010.6 |
| 20260902015056 | 85 | 144 | 3.0 | 7.0 | 0.00 | 0.00 | 0.00 | 51 | 1010.6 |
| 20260902014556 | 85 | 155 | 3.0 | 7.0 | 0.00 | 0.00 | 0.00 | 51 | 1010.6 |
| 20260902014055 | 85 | 134 | 3.0 | 7.0 | 0.00 | 0.00 | 0.00 | 50 | 1010.5 |
| 20260902013555 | 86 | 156 | 4.0 | 9.0 | 0.00 | 0.00 | 0.00 | 49 | 1010.4 |
| 20260902013056 | 86 | 146 | 4.0 | 9.0 | 0.00 | 0.00 | 0.00 | 49 | 1010.4 |
| 20260902012555 | 86 | 166 | 4.0 | 7.0 | 0.00 | 0.00 | 0.00 | 49 | 1010.4 |
| 20260902012055 | 86 | 161 | 4.0 | 7.0 | 0.00 | 0.00 | 0.00 | 49 | 1010.3 |
| 20260902011555 | 87 | 155 | 4.0 | 7.0 | 0.00 | 0.00 | 0.00 | 49 | 1010.3 |
| 20260902011055 | 87 | 138 | 3.0 | 7.0 | 0.00 | 0.00 | 0.00 | 48 | 1010.3 |
| 20260902010554 | 87 | 128 | 3.0 | 8.0 | 0.00 | 0.00 | 0.00 | 48 | 1010.3 |
| 20260902010054 | 88 | 144 | 3.0 | 8.0 | 0.00 | 0.00 | 0.00 | 48 | 1010.3 |
| 20260902005555 | 88 | 145 | 3.0 | 9.0 | 0.00 | 0.00 | 0.00 | 47 | 1010.3 |
| 20260902005054 | 89 | 148 | 2.0 | 9.0 | 0.00 | 0.00 | 0.00 | 47 | 1010.2 |
| 20260902004553 | 89 | 148 | 3.0 | 8.0 | 0.00 | 0.00 | 0.00 | 47 | 1010.3 |
| 20260902004052 | 89 | 151 | 3.0 | 8.0 | 0.00 | 0.00 | 0.00 | 46 | 1010.3 |
| 20260902003553 | 90 | 145 | 2.0 | 9.0 | 0.00 | 0.00 | 0.00 | 46 | 1010.3 |
| 20260902003052 | 90 | 145 | 3.0 | 10.0 | 0.00 | 0.00 | 0.00 | 45 | 1010.3 |
| 20260902002554 | 90 | 142 | 6.0 | 10.0 | 0.00 | 0.00 | 0.00 | 45 | 1010.3 |
| 20260902002052 | 91 | 148 | 4.0 | 11.0 | 0.00 | 0.00 | 0.00 | 45 | 1010.3 |
| 20260902001552 | 91 | 130 | 6.0 | 11.0 | 0.00 | 0.00 | 0.00 | 44 | 1010.3 |
| 20260902001054 | 91 | 153 | 8.0 | 11.0 | 0.00 | 0.00 | 0.00 | 44 | 1010.3 |
| 20260902000551 | 92 | 123 | 6.0 | 10.0 | 0.00 | 0.00 | 0.00 | 43 | 1010.3 |
| 20260902000056 | 92 | 143 | 4.0 | 11.0 | 0.00 | 0.00 | 0.00 | 43 | 1010.2 |
| 20260901235550 | 93 | 112 | 4.0 | 11.0 | 0.00 | 0.00 | 0.00 | 42 | 1010.3 |
| 20260901235050 | 93 | 148 | 6.0 | 11.0 | 0.00 | 0.00 | 0.00 | 43 | 1010.2 |
| 20260901234550 | 93 | 140 | 4.0 | 12.0 | 0.00 | 0.00 | 0.00 | 43 | 1010.3 |
| 20260901234052 | 93 | 129 | 6.0 | 12.0 | 0.00 | 0.00 | 0.00 | 42 | 1010.2 |
| 20260901233550 | 93 | 115 | 3.0 | 9.0 | 0.00 | 0.00 | 0.00 | 42 | 1010.2 |
| 20260901233050 | 93 | 118 | 5.0 | 12.0 | 0.00 | 0.00 | 0.00 | 42 | 1010.2 |
| 20260901232549 | 93 | 74 | 8.0 | 12.0 | 0.00 | 0.00 | 0.00 | 42 | 1010.2 |
| 20260901232050 | 93 | 76 | 6.0 | 10.0 | 0.00 | 0.00 | 0.00 | 42 | 1010.2 |
| 20260901231549 | 93 | 86 | 2.0 | 12.0 | 0.00 | 0.00 | 0.00 | 43 | 1010.2 |
| 20260901231049 | 94 | 145 | 8.0 | 14.0 | 0.00 | 0.00 | 0.00 | 42 | 1010.1 |
| 20260901230549 | 94 | 166 | 8.0 | 14.0 | 0.00 | 0.00 | 0.00 | 42 | 1010.1 |
| 20260901230051 | 94 | 132 | 6.0 | 12.0 | 0.00 | 0.00 | 0.00 | 42 | 1010.0 |
| 20260901225548 | 94 | 128 | 3.0 | 14.0 | 0.00 | 0.00 | 0.00 | 42 | 1010.0 |
| 20260901225047 | 94 | 113 | 7.0 | 14.0 | 0.00 | 0.00 | 0.00 | 42 | 1010.0 |
| 20260901224548 | 94 | 132 | 6.0 | 11.0 | 0.00 | 0.00 | 0.00 | 43 | 1010.0 |
| 20260901224150 | 93 | 109 | 5.0 | 11.0 | 0.00 | 0.00 | 0.00 | 43 | 1010.0 |
| 20260901223547 | 94 | 43 | 7.0 | 12.0 | 0.00 | 0.00 | 0.00 | 42 | 1009.9 |
| 20260901223050 | 93 | 79 | 8.0 | 13.0 | 0.00 | 0.00 | 0.00 | 42 | 1010.0 |
| 20260901222545 | 92 | 103 | 9.0 | 13.0 | 0.00 | 0.00 | 0.00 | 42 | 1010.0 |
| 20260901222045 | 93 | 89 | 3.0 | 11.0 | 0.00 | 0.00 | 0.00 | 43 | 1010.1 |
| 20260901221545 | 94 | 137 | 5.0 | 11.0 | 0.00 | 0.00 | 0.00 | 41 | 1010.1 |
| 20260901221046 | 95 | 83 | 4.0 | 9.0 | 0.00 | 0.00 | 0.00 | 39 | 1010.0 |
| 20260901220544 | 96 | 97 | 7.0 | 10.0 | 0.00 | 0.00 | 0.00 | 39 | 1010.1 |
| 20260901220047 | 96 | 55 | 5.0 | 13.0 | 0.00 | 0.00 | 0.00 | 39 | 1010.0 |
| 20260901215544 | 97 | 77 | 8.0 | 13.0 | 0.00 | 0.00 | 0.00 | 39 | 1010.1 |
| 20260901215043 | 97 | 105 | 5.0 | 9.0 | 0.00 | 0.00 | 0.00 | 38 | 1010.1 |
| 20260901214543 | 97 | 162 | 1.0 | 9.0 | 0.00 | 0.00 | 0.00 | 38 | 1010.1 |
| 20260901214040 | 97 | 159 | 2.0 | 13.0 | 0.00 | 0.00 | 0.00 | 38 | 1010.1 |
| 20260901213540 | 96 | 153 | 7.0 | 13.0 | 0.00 | 0.00 | 0.00 | 38 | 1010.2 |
| 20260901213102 | 96 | 119 | 5.0 | 10.0 | 0.00 | 0.00 | 0.00 | 39 | 1010.2 |
| 20260901212538 | 95 | 90 | 3.0 | 12.0 | 0.00 | 0.00 | 0.00 | 40 | 1010.2 |
| 20260901212037 | 96 | 115 | 7.0 | 12.0 | 0.00 | 0.00 | 0.00 | 38 | 1010.3 |
| 20260901211537 | 95 | 222 | 5.0 | 13.0 | 0.00 | 0.00 | 0.00 | 39 | 1010.3 |
| 20260901211037 | 95 | 142 | 7.0 | 13.0 | 0.00 | 0.00 | 0.00 | 40 | 1010.5 |
| 20260901210538 | 95 | 74 | 5.0 | 11.0 | 0.00 | 0.00 | 0.00 | 40 | 1010.6 |
| 20260901210038 | 95 | 189 | 2.0 | 8.0 | 0.00 | 0.00 | 0.00 | 41 | 1010.6 |
| 20260901205534 | 95 | 150 | 5.0 | 8.0 | 0.00 | 0.00 | 0.00 | 40 | 1010.7 |
| 20260901205033 | 95 | 199 | 5.0 | 8.0 | 0.00 | 0.00 | 0.00 | 41 | 1010.9 |
| 20260901204539 | 94 | 44 | 2.0 | 5.0 | 0.00 | 0.00 | 0.00 | 42 | 1010.9 |
| 20260901204032 | 93 | 63 | 1.0 | 7.0 | 0.00 | 0.00 | 0.00 | 42 | 1011.0 |
| 20260901203531 | 94 | 117 | 1.0 | 10.0 | 0.00 | 0.00 | 0.00 | 41 | 1011.1 |
| 20260901203030 | 96 | 136 | 4.0 | 11.0 | 0.00 | 0.00 | 0.00 | 40 | 1011.2 |
| 20260901202529 | 96 | 144 | 6.0 | 12.0 | 0.00 | 0.00 | 0.00 | 41 | 1011.2 |
| 20260901202030 | 95 | 158 | 6.0 | 12.0 | 0.00 | 0.00 | 0.00 | 41 | 1011.3 |
| 20260901201529 | 95 | 150 | 5.0 | 11.0 | 0.00 | 0.00 | 0.00 | 42 | 1011.3 |
| 20260901201028 | 95 | 44 | 4.0 | 9.0 | 0.00 | 0.00 | 0.00 | 42 | 1011.4 |
| 20260901200527 | 94 | 149 | 1.0 | 8.0 | 0.00 | 0.00 | 0.00 | 43 | 1011.5 |
| 20260901200027 | 94 | 131 | 2.0 | 9.0 | 0.00 | 0.00 | 0.00 | 43 | 1011.6 |
| 20260901195526 | 95 | 201 | 5.0 | 11.0 | 0.00 | 0.00 | 0.00 | 41 | 1011.7 |
| 20260901195029 | 95 | 196 | 7.0 | 11.0 | 0.00 | 0.00 | 0.00 | 41 | 1011.7 |
| 20260901194526 | 95 | 119 | 5.0 | 16.0 | 0.00 | 0.00 | 0.00 | 42 | 1011.9 |
| 20260901194024 | 95 | 180 | 5.0 | 13.0 | 0.00 | 0.00 | 0.00 | 42 | 1011.9 |
| 20260901193523 | 95 | 171 | 4.0 | 10.0 | 0.00 | 0.00 | 0.00 | 43 | 1011.9 |
| 20260901193022 | 94 | 119 | 3.0 | 10.0 | 0.00 | 0.00 | 0.00 | 43 | 1012.0 |
| 20260901192520 | 94 | 202 | 4.0 | 13.0 | 0.00 | 0.00 | 0.00 | 44 | 1012.1 |
| 20260901192021 | 94 | 184 | 7.0 | 13.0 | 0.00 | 0.00 | 0.00 | 43 | 1012.2 |
| 20260901191518 | 94 | 186 | 4.0 | 11.0 | 0.00 | 0.00 | 0.00 | 44 | 1012.2 |
| 20260901191021 | 94 | 200 | 5.0 | 16.0 | 0.00 | 0.00 | 0.00 | 44 | 1012.4 |
| 20260901190517 | 93 | 213 | 9.0 | 16.0 | 0.00 | 0.00 | 0.00 | 44 | 1012.4 |
| 20260901190015 | 93 | 24 | 4.0 | 10.0 | 0.00 | 0.00 | 0.00 | 45 | 1012.4 |
| 20260901185514 | 93 | 236 | 4.0 | 17.0 | 0.00 | 0.00 | 0.00 | 45 | 1012.4 |
| 20260901185014 | 93 | 212 | 6.0 | 18.0 | 0.00 | 0.00 | 0.00 | 45 | 1012.4 |
| 20260901184521 | 93 | 166 | 7.0 | 11.0 | 0.00 | 0.00 | 0.00 | 45 | 1012.6 |
| 20260901184017 | 93 | 163 | 1.0 | 12.0 | 0.00 | 0.00 | 0.00 | 44 | 1012.7 |
| 20260901183513 | 93 | 178 | 5.0 | 12.0 | 0.00 | 0.00 | 0.00 | 45 | 1012.9 |
| 20260901183013 | 93 | 167 | 4.0 | 15.0 | 0.00 | 0.00 | 0.00 | 44 | 1012.8 |
| 20260901182512 | 93 | 125 | 8.0 | 15.0 | 0.00 | 0.00 | 0.00 | 45 | 1012.9 |
| 20260901182016 | 93 | 274 | 4.0 | 14.0 | 0.00 | 0.00 | 0.00 | 45 | 1013.0 |
| 20260901181510 | 93 | 167 | 7.0 | 14.0 | 0.00 | 0.00 | 0.00 | 46 | 1013.1 |
| 20260901181010 | 92 | 101 | 1.0 | 14.0 | 0.00 | 0.00 | 0.00 | 45 | 1013.1 |
| 20260901180509 | 92 | 234 | 7.0 | 14.0 | 0.00 | 0.00 | 0.00 | 46 | 1013.2 |
| 20260901180008 | 91 | 149 | 7.0 | 12.0 | 0.00 | 0.00 | 0.00 | 47 | 1013.2 |
| 20260901175510 | 92 | 167 | 5.0 | 14.0 | 0.00 | 0.00 | 0.00 | 47 | 1013.3 |
| 20260901175006 | 92 | 223 | 8.0 | 14.0 | 0.00 | 0.00 | 0.00 | 45 | 1013.5 |
| 20260901174507 | 91 | 131 | 5.0 | 11.0 | 0.00 | 0.00 | 0.00 | 46 | 1013.5 |
| 20260901174008 | 91 | 200 | 5.0 | 10.0 | 0.00 | 0.00 | 0.00 | 46 | 1013.6 |
| 20260901173503 | 91 | 170 | 5.0 | 13.0 | 0.00 | 0.00 | 0.00 | 46 | 1013.6 |
| 20260901173003 | 91 | 178 | 4.0 | 10.0 | 0.00 | 0.00 | 0.00 | 46 | 1013.7 |
| 20260901172501 | 90 | 188 | 5.0 | 15.0 | 0.00 | 0.00 | 0.00 | 47 | 1013.8 |
| 20260901172101 | 90 | 217 | 6.0 | 15.0 | 0.00 | 0.00 | 0.00 | 48 | 1013.9 |
| 20260901171614 | 90 | 174 | 6.0 | 11.0 | 0.00 | 0.00 | 0.00 | 47 | 1013.9 |
| 20260901171059 | 90 | 125 | 5.0 | 12.0 | 0.00 | 0.00 | 0.00 | 45 | 1014.0 |
| 20260901170600 | 90 | 194 | 5.0 | 12.0 | 0.00 | 0.00 | 0.00 | 46 | 1014.0 |
| 20260901170107 | 90 | 218 | 7.0 | 12.0 | 0.00 | 0.00 | 0.00 | 48 | 1014.1 |
| 20260901165556 | 90 | 176 | 5.0 | 11.0 | 0.00 | 0.00 | 0.00 | 46 | 1014.1 |
| 20260901165056 | 89 | 179 | 6.0 | 10.0 | 0.00 | 0.00 | 0.00 | 50 | 1014.0 |
| 20260901164557 | 89 | 209 | 7.0 | 12.0 | 0.00 | 0.00 | 0.00 | 48 | 1014.0 |
| 20260901164055 | 89 | 174 | 6.0 | 14.0 | 0.00 | 0.00 | 0.00 | 48 | 1014.0 |
| 20260901163553 | 88 | 142 | 8.0 | 14.0 | 0.00 | 0.00 | 0.00 | 49 | 1014.0 |
| 20260901163051 | 88 | 138 | 6.0 | 11.0 | 0.00 | 0.00 | 0.00 | 51 | 1013.9 |
| 20260901162553 | 88 | 139 | 5.0 | 11.0 | 0.00 | 0.00 | 0.00 | 54 | 1014.0 |
| 20260901162050 | 87 | 175 | 4.0 | 12.0 | 0.00 | 0.00 | 0.00 | 55 | 1014.0 |
| 20260901161550 | 87 | 163 | 5.0 | 10.0 | 0.00 | 0.00 | 0.00 | 55 | 1013.9 |
| 20260901161049 | 87 | 136 | 6.0 | 9.0 | 0.00 | 0.00 | 0.00 | 56 | 1014.0 |
| 20260901160547 | 87 | 132 | 4.0 | 8.0 | 0.00 | 0.00 | 0.00 | 57 | 1014.0 |
| 20260901160047 | 87 | 139 | 3.0 | 9.0 | 0.00 | 0.00 | 0.00 | 58 | 1014.0 |
| 20260901155545 | 86 | 119 | 6.0 | 9.0 | 0.00 | 0.00 | 0.00 | 58 | 1013.8 |
| 20260901155045 | 86 | 161 | 5.0 | 9.0 | 0.00 | 0.00 | 0.00 | 59 | 1013.8 |
| 20260901154544 | 86 | 115 | 3.0 | 9.0 | 0.00 | 0.00 | 0.00 | 59 | 1013.9 |
| 20260901154043 | 86 | 148 | 3.0 | 5.0 | 0.00 | 0.00 | 0.00 | 60 | 1013.8 |
| 20260901153545 | 85 | 148 | 2.0 | 7.0 | 0.00 | 0.00 | 0.00 | 61 | 1013.8 |
| 20260901153051 | 85 | 78 | 1.0 | 6.0 | 0.00 | 0.00 | 0.00 | 61 | 1013.8 |
| 20260901152539 | 84 | 136 | 3.0 | 6.0 | 0.00 | 0.00 | 0.00 | 64 | 1013.7 |
| 20260901152038 | 84 | 155 | 2.0 | 7.0 | 0.00 | 0.00 | 0.00 | 65 | 1013.8 |
| 20260901151537 | 83 | 100 | 4.0 | 8.0 | 0.00 | 0.00 | 0.00 | 65 | 1013.7 |
| 20260901151038 | 83 | 159 | 4.0 | 8.0 | 0.00 | 0.00 | 0.00 | 66 | 1013.7 |
| 20260901150537 | 82 | 157 | 2.0 | 7.0 | 0.00 | 0.00 | 0.00 | 67 | 1013.7 |
| 20260901150035 | 82 | 193 | 3.0 | 8.0 | 0.00 | 0.00 | 0.00 | 67 | 1013.7 |
| 20260901145533 | 81 | 188 | 5.0 | 9.0 | 0.00 | 0.00 | 0.00 | 68 | 1013.7 |
| 20260901145032 | 81 | 178 | 5.0 | 9.0 | 0.00 | 0.00 | 0.00 | 70 | 1013.7 |
| 20260901144533 | 80 | 183 | 4.0 | 7.0 | 0.00 | 0.00 | 0.00 | 72 | 1013.7 |
| 20260901144029 | 80 | 205 | 3.0 | 7.0 | 0.00 | 0.00 | 0.00 | 73 | 1013.7 |
| 20260901143528 | 79 | 196 | 3.0 | 7.0 | 0.00 | 0.00 | 0.00 | 79 | 1013.7 |
| 20260901143033 | 79 | 172 | 3.0 | 8.0 | 0.00 | 0.00 | 0.00 | 79 | 1013.7 |
| 20260901142533 | 78 | 188 | 5.0 | 8.0 | 0.00 | 0.00 | 0.00 | 79 | 1013.8 |
| 20260901142028 | 77 | 184 | 4.0 | 7.0 | 0.00 | 0.00 | 0.00 | 80 | 1013.9 |
| 20260901141535 | 77 | 222 | 2.0 | 5.0 | 0.00 | 0.00 | 0.00 | 81 | 1013.9 |
| 20260901141028 | 77 | 169 | 2.0 | 5.0 | 0.00 | 0.00 | 0.00 | 83 | 1013.7 |
| 20260901140527 | 76 | 197 | 3.0 | 6.0 | 0.00 | 0.00 | 0.00 | 84 | 1013.7 |
| 20260901140027 | 76 | 163 | 2.0 | 6.0 | 0.00 | 0.00 | 0.00 | 84 | 1013.7 |
| 20260901135527 | 75 | 207 | 2.0 | 5.0 | 0.00 | 0.00 | 0.00 | 88 | 1013.7 |
| 20260901135027 | 75 | 153 | 3.0 | 6.0 | 0.00 | 0.00 | 0.00 | 91 | 1013.8 |
| 20260901134526 | 74 | 146 | 4.0 | 7.0 | 0.00 | 0.00 | 0.00 | 92 | 1013.8 |
| 20260901134027 | 74 | 121 | 4.0 | 8.0 | 0.00 | 0.00 | 0.00 | 93 | 1013.8 |
| 20260901133525 | 73 | 119 | 4.0 | 8.0 | 0.00 | 0.00 | 0.00 | 94 | 1013.8 |
| 20260901133025 | 73 | 139 | 3.0 | 7.0 | 0.00 | 0.00 | 0.00 | 95 | 1013.8 |
| 20260901132525 | 73 | 151 | 3.0 | 7.0 | 0.00 | 0.00 | 0.00 | 96 | 1013.7 |
| 20260901132024 | 72 | 114 | 3.0 | 6.0 | 0.00 | 0.00 | 0.00 | 96 | 1013.8 |
| 20260901131524 | 72 | 98 | 3.0 | 5.0 | 0.00 | 0.00 | 0.00 | 96 | 1013.7 |
| 20260901131023 | 72 | 90 | 2.0 | 6.0 | 0.00 | 0.00 | 0.00 | 96 | 1013.6 |
| 20260901130524 | 71 | 104 | 3.0 | 6.0 | 0.00 | 0.00 | 0.00 | 96 | 1013.5 |
| 20260901130022 | 71 | 112 | 2.0 | 6.0 | 0.00 | 0.00 | 0.00 | 96 | 1013.5 |
| 20260901125520 | 71 | 108 | 2.0 | 6.0 | 0.00 | 0.00 | 0.00 | 96 | 1013.3 |
| 20260901125021 | 71 | 125 | 3.0 | 4.0 | 0.00 | 0.00 | 0.00 | 96 | 1013.2 |
| 20260901124521 | 71 | 137 | 2.0 | 4.0 | 0.00 | 0.00 | 0.00 | 96 | 1013.3 |
| 20260901124020 | 71 | 129 | 2.0 | 3.0 | 0.00 | 0.00 | 0.00 | 96 | 1013.2 |
| 20260901123524 | 71 | 166 | 2.0 | 5.0 | 0.00 | 0.00 | 0.00 | 96 | 1013.2 |
| 20260901123022 | 71 | 155 | 3.0 | 6.0 | 0.00 | 0.00 | 0.00 | 96 | 1013.0 |
| 20260901122520 | 71 | 178 | 4.0 | 5.0 | 0.00 | 0.00 | 0.00 | 96 | 1013.0 |
| 20260901122019 | 71 | 189 | 3.0 | 5.0 | 0.00 | 0.00 | 0.00 | 95 | 1013.1 |
| 20260901121519 | 71 | 167 | 2.0 | 4.0 | 0.00 | 0.00 | 0.00 | 95 | 1013.1 |
| 20260901121019 | 71 | 161 | 2.0 | 4.0 | 0.00 | 0.00 | 0.00 | 95 | 1013.1 |
| 20260901120519 | 71 | 154 | 2.0 | 3.0 | 0.00 | 0.00 | 0.00 | 95 | 1013.1 |
| 20260901120018 | 71 | 146 | 1.0 | 5.0 | 0.00 | 0.00 | 0.00 | 95 | 1013.1 |
| 20260901115517 | 71 | 165 | 2.0 | 5.0 | 0.00 | 0.00 | 0.00 | 95 | 1013.0 |
| 20260901115020 | 71 | 179 | 2.0 | 4.0 | 0.00 | 0.00 | 0.00 | 94 | 1013.0 |
| 20260901114519 | 71 | 175 | 1.0 | 5.0 | 0.00 | 0.00 | 0.00 | 94 | 1013.0 |
| 20260901114016 | 71 | 162 | 1.0 | 7.0 | 0.00 | 0.00 | 0.00 | 94 | 1013.1 |
| 20260901113516 | 71 | 152 | 2.0 | 7.0 | 0.00 | 0.00 | 0.00 | 94 | 1013.0 |
| 20260901113016 | 71 | 136 | 2.0 | 4.0 | 0.00 | 0.00 | 0.00 | 94 | 1013.0 |
| 20260901112518 | 72 | 141 | 1.0 | 4.0 | 0.00 | 0.00 | 0.00 | 94 | 1013.1 |
| 20260901112015 | 72 | 160 | 2.0 | 4.0 | 0.00 | 0.00 | 0.00 | 94 | 1013.1 |
| 20260901111515 | 72 | 121 | 2.0 | 4.0 | 0.00 | 0.00 | 0.00 | 94 | 1013.2 |
| 20260901111013 | 72 | 146 | 2.0 | 4.0 | 0.00 | 0.00 | 0.00 | 94 | 1013.1 |
| 20260901110513 | 72 | 136 | 2.0 | 5.0 | 0.00 | 0.00 | 0.00 | 94 | 1013.1 |
| 20260901110013 | 72 | 154 | 3.0 | 7.0 | 0.00 | 0.00 | 0.00 | 94 | 1013.1 |
| 20260901105511 | 72 | 161 | 4.0 | 7.0 | 0.00 | 0.00 | 0.00 | 93 | 1013.1 |
| 20260901105015 | 72 | 173 | 2.0 | 7.0 | 0.00 | 0.00 | 0.00 | 93 | 1013.1 |
| 20260901104512 | 72 | 159 | 3.0 | 5.0 | 0.00 | 0.00 | 0.00 | 93 | 1013.1 |
| 20260901104011 | 72 | 182 | 3.0 | 6.0 | 0.00 | 0.00 | 0.00 | 93 | 1013.0 |
| 20260901103512 | 72 | 153 | 2.0 | 5.0 | 0.00 | 0.00 | 0.00 | 93 | 1013.0 |
| 20260901103010 | 72 | 162 | 1.0 | 8.0 | 0.00 | 0.00 | 0.00 | 92 | 1013.0 |
| 20260901102514 | 73 | 162 | 4.0 | 8.0 | 0.00 | 0.00 | 0.00 | 92 | 1013.0 |
| 20260901102009 | 73 | 165 | 2.0 | 8.0 | 0.00 | 0.00 | 0.00 | 92 | 1013.1 |
| 20260901101509 | 73 | 160 | 3.0 | 9.0 | 0.00 | 0.00 | 0.00 | 92 | 1013.1 |
| 20260901101008 | 73 | 169 | 6.0 | 9.0 | 0.00 | 0.00 | 0.00 | 92 | 1013.1 |
| 20260901100507 | 73 | 182 | 4.0 | 8.0 | 0.00 | 0.00 | 0.00 | 92 | 1013.1 |
| 20260901100006 | 73 | 140 | 4.0 | 9.0 | 0.00 | 0.00 | 0.00 | 91 | 1013.2 |
| 20260901095505 | 73 | 178 | 6.0 | 9.0 | 0.00 | 0.00 | 0.00 | 91 | 1013.1 |
| 20260901095005 | 73 | 165 | 6.0 | 10.0 | 0.00 | 0.00 | 0.00 | 91 | 1013.2 |
| 20260901094506 | 73 | 161 | 6.0 | 10.0 | 0.00 | 0.00 | 0.00 | 91 | 1013.2 |
| 20260901094004 | 73 | 180 | 5.0 | 11.0 | 0.00 | 0.00 | 0.00 | 90 | 1013.3 |
| 20260901093503 | 73 | 186 | 4.0 | 10.0 | 0.00 | 0.00 | 0.00 | 90 | 1013.3 |
| 20260901093003 | 73 | 184 | 6.0 | 10.0 | 0.00 | 0.00 | 0.00 | 90 | 1013.3 |
| 20260901092503 | 73 | 184 | 5.0 | 15.0 | 0.00 | 0.00 | 0.00 | 89 | 1013.2 |
| 20260901092005 | 74 | 160 | 6.0 | 15.0 | 0.00 | 0.00 | 0.00 | 89 | 1013.2 |